sensor_id;sensor_type;location;lat;lon;timestamp;temperature;humidity
12893;DHT22;6514;48.606;9.222;2023-06-22T00:00:42;19.70;99.90
12893;DHT22;6514;48.606;9.222;2023-06-22T00:03:09;19.60;99.90
12893;DHT22;6514;48.606;9.222;2023-06-22T00:05:37;19.60;99.90
12893;DHT22;6514;48.606;9.222;2023-06-22T00:08:04;19.50;99.90
12893;DHT22;6514;48.606;9.222;2023-06-22T00:10:31;19.50;99.90
12893;DHT22;6514;48.606;9.222;2023-06-22T00:12:58;19.60;99.90
12893;DHT22;6514;48.606;9.222;2023-06-22T00:15:25;19.50;99.90
12893;DHT22;6514;48.606;9.222;2023-06-22T00:17:51;19.40;99.90
12893;DHT22;6514;48.606;9.222;2023-06-22T00:20:18;19.40;99.90
12893;DHT22;6514;48.606;9.222;2023-06-22T00:22:46;19.40;99.90
12893;DHT22;6514;48.606;9.222;2023-06-22T00:25:13;19.40;99.90
12893;DHT22;6514;48.606;9.222;2023-06-22T00:27:40;19.30;99.90
12893;DHT22;6514;48.606;9.222;2023-06-22T00:30:08;19.30;99.90
12893;DHT22;6514;48.606;9.222;2023-06-22T00:32:35;19.30;99.90
12893;DHT22;6514;48.606;9.222;2023-06-22T00:35:01;19.30;99.90
12893;DHT22;6514;48.606;9.222;2023-06-22T00:37:28;19.30;99.90
12893;DHT22;6514;48.606;9.222;2023-06-22T00:39:56;19.30;99.90
12893;DHT22;6514;48.606;9.222;2023-06-22T00:42:23;19.30;99.90
12893;DHT22;6514;48.606;9.222;2023-06-22T00:44:50;19.30;99.90
12893;DHT22;6514;48.606;9.222;2023-06-22T00:47:18;19.30;99.90
12893;DHT22;6514;48.606;9.222;2023-06-22T00:49:45;19.20;99.90
12893;DHT22;6514;48.606;9.222;2023-06-22T00:52:14;19.20;99.90
12893;DHT22;6514;48.606;9.222;2023-06-22T00:54:46;19.20;99.90
12893;DHT22;6514;48.606;9.222;2023-06-22T00:57:17;19.20;99.90
12893;DHT22;6514;48.606;9.222;2023-06-22T00:59:45;19.20;99.90
12893;DHT22;6514;48.606;9.222;2023-06-22T01:02:14;19.10;99.90
12893;DHT22;6514;48.606;9.222;2023-06-22T01:04:40;19.20;99.90
12893;DHT22;6514;48.606;9.222;2023-06-22T01:07:11;19.20;99.90
12893;DHT22;6514;48.606;9.222;2023-06-22T01:09:45;19.20;99.90
12893;DHT22;6514;48.606;9.222;2023-06-22T01:12:16;19.10;99.90
12893;DHT22;6514;48.606;9.222;2023-06-22T01:14:50;19.10;99.90
12893;DHT22;6514;48.606;9.222;2023-06-22T01:17:19;19.10;99.90
12893;DHT22;6514;48.606;9.222;2023-06-22T01:19:49;19.10;99.90
12893;DHT22;6514;48.606;9.222;2023-06-22T01:22:23;19.10;99.90
12893;DHT22;6514;48.606;9.222;2023-06-22T01:24:57;19.10;99.90
12893;DHT22;6514;48.606;9.222;2023-06-22T01:27:36;19.10;99.90
12893;DHT22;6514;48.606;9.222;2023-06-22T01:30:09;19.00;99.90
12893;DHT22;6514;48.606;9.222;2023-06-22T01:32:38;19.00;99.90
12893;DHT22;6514;48.606;9.222;2023-06-22T01:35:07;19.00;99.90
12893;DHT22;6514;48.606;9.222;2023-06-22T01:37:35;18.90;99.90
12893;DHT22;6514;48.606;9.222;2023-06-22T01:40:04;18.90;99.90
12893;DHT22;6514;48.606;9.222;2023-06-22T01:42:31;19.00;99.90
12893;DHT22;6514;48.606;9.222;2023-06-22T01:44:59;18.90;99.90
12893;DHT22;6514;48.606;9.222;2023-06-22T01:47:28;18.90;99.90
12893;DHT22;6514;48.606;9.222;2023-06-22T01:49:55;18.90;99.90
12893;DHT22;6514;48.606;9.222;2023-06-22T01:52:22;18.90;99.90
12893;DHT22;6514;48.606;9.222;2023-06-22T01:54:49;19.00;99.90
12893;DHT22;6514;48.606;9.222;2023-06-22T01:57:16;18.90;99.90
12893;DHT22;6514;48.606;9.222;2023-06-22T01:59:48;18.90;99.90
12893;DHT22;6514;48.606;9.222;2023-06-22T02:02:19;18.80;99.90
12893;DHT22;6514;48.606;9.222;2023-06-22T02:04:56;18.80;99.90
12893;DHT22;6514;48.606;9.222;2023-06-22T02:07:28;18.80;99.90
12893;DHT22;6514;48.606;9.222;2023-06-22T02:09:58;18.80;99.90
12893;DHT22;6514;48.606;9.222;2023-06-22T02:12:26;18.80;99.90
12893;DHT22;6514;48.606;9.222;2023-06-22T02:14:54;18.80;99.90
12893;DHT22;6514;48.606;9.222;2023-06-22T02:17:22;18.80;99.90
12893;DHT22;6514;48.606;9.222;2023-06-22T02:19:49;18.70;99.90
12893;DHT22;6514;48.606;9.222;2023-06-22T02:22:18;18.70;99.90
12893;DHT22;6514;48.606;9.222;2023-06-22T02:24:44;18.70;99.90
12893;DHT22;6514;48.606;9.222;2023-06-22T02:27:11;18.70;99.90
12893;DHT22;6514;48.606;9.222;2023-06-22T02:29:38;18.70;99.90
12893;DHT22;6514;48.606;9.222;2023-06-22T02:32:05;18.70;99.90
12893;DHT22;6514;48.606;9.222;2023-06-22T02:34:32;18.70;99.90
12893;DHT22;6514;48.606;9.222;2023-06-22T02:36:59;18.70;99.90
12893;DHT22;6514;48.606;9.222;2023-06-22T02:39:28;18.70;99.90
12893;DHT22;6514;48.606;9.222;2023-06-22T02:41:55;18.70;99.90
12893;DHT22;6514;48.606;9.222;2023-06-22T02:44:21;18.60;99.90
12893;DHT22;6514;48.606;9.222;2023-06-22T02:46:49;18.60;99.90
12893;DHT22;6514;48.606;9.222;2023-06-22T02:49:16;18.60;99.90
12893;DHT22;6514;48.606;9.222;2023-06-22T02:51:46;18.70;99.90
12893;DHT22;6514;48.606;9.222;2023-06-22T02:54:13;18.70;99.90
12893;DHT22;6514;48.606;9.222;2023-06-22T02:56:41;18.70;99.90
12893;DHT22;6514;48.606;9.222;2023-06-22T02:59:09;18.70;99.90
12893;DHT22;6514;48.606;9.222;2023-06-22T03:01:36;18.60;99.90
12893;DHT22;6514;48.606;9.222;2023-06-22T03:04:05;18.60;99.90
12893;DHT22;6514;48.606;9.222;2023-06-22T03:06:33;18.70;99.90
12893;DHT22;6514;48.606;9.222;2023-06-22T03:09:01;18.60;99.90
12893;DHT22;6514;48.606;9.222;2023-06-22T03:11:29;18.60;99.90
12893;DHT22;6514;48.606;9.222;2023-06-22T03:13:57;18.50;99.90
12893;DHT22;6514;48.606;9.222;2023-06-22T03:16:24;18.40;99.90
12893;DHT22;6514;48.606;9.222;2023-06-22T03:18:51;18.40;99.90
12893;DHT22;6514;48.606;9.222;2023-06-22T03:21:19;18.30;99.90
12893;DHT22;6514;48.606;9.222;2023-06-22T03:23:46;18.30;99.90
12893;DHT22;6514;48.606;9.222;2023-06-22T03:26:16;18.20;99.90
12893;DHT22;6514;48.606;9.222;2023-06-22T03:28:43;18.20;99.90
12893;DHT22;6514;48.606;9.222;2023-06-22T03:31:11;18.10;99.90
12893;DHT22;6514;48.606;9.222;2023-06-22T03:33:38;18.10;99.90
12893;DHT22;6514;48.606;9.222;2023-06-22T03:36:05;18.10;99.90
12893;DHT22;6514;48.606;9.222;2023-06-22T03:38:32;18.10;99.90
12893;DHT22;6514;48.606;9.222;2023-06-22T03:40:59;18.20;99.90
12893;DHT22;6514;48.606;9.222;2023-06-22T03:43:26;18.20;99.90
12893;DHT22;6514;48.606;9.222;2023-06-22T03:45:52;18.30;99.90
12893;DHT22;6514;48.606;9.222;2023-06-22T03:48:20;18.30;99.90
12893;DHT22;6514;48.606;9.222;2023-06-22T03:50:47;18.30;99.90
12893;DHT22;6514;48.606;9.222;2023-06-22T03:53:14;18.30;99.90
12893;DHT22;6514;48.606;9.222;2023-06-22T03:55:48;18.30;99.90
12893;DHT22;6514;48.606;9.222;2023-06-22T03:58:15;18.30;99.90
12893;DHT22;6514;48.606;9.222;2023-06-22T04:00:43;18.30;99.90
12893;DHT22;6514;48.606;9.222;2023-06-22T04:03:10;18.40;99.90
12893;DHT22;6514;48.606;9.222;2023-06-22T04:05:39;18.40;99.90
12893;DHT22;6514;48.606;9.222;2023-06-22T04:08:06;18.50;99.90
12893;DHT22;6514;48.606;9.222;2023-06-22T04:10:33;18.50;99.90
12893;DHT22;6514;48.606;9.222;2023-06-22T04:13:00;18.50;99.90
12893;DHT22;6514;48.606;9.222;2023-06-22T04:15:27;18.60;99.90
12893;DHT22;6514;48.606;9.222;2023-06-22T04:17:54;18.60;99.90
12893;DHT22;6514;48.606;9.222;2023-06-22T04:20:21;18.70;99.90
12893;DHT22;6514;48.606;9.222;2023-06-22T04:22:52;18.70;99.90
12893;DHT22;6514;48.606;9.222;2023-06-22T04:25:19;18.70;99.90
12893;DHT22;6514;48.606;9.222;2023-06-22T04:27:46;18.70;99.90
12893;DHT22;6514;48.606;9.222;2023-06-22T04:30:13;18.80;99.90
12893;DHT22;6514;48.606;9.222;2023-06-22T04:32:41;18.80;99.90
12893;DHT22;6514;48.606;9.222;2023-06-22T04:35:08;18.90;99.90
12893;DHT22;6514;48.606;9.222;2023-06-22T04:37:35;19.00;99.90
12893;DHT22;6514;48.606;9.222;2023-06-22T04:40:05;19.10;99.90
12893;DHT22;6514;48.606;9.222;2023-06-22T04:42:34;19.20;99.90
12893;DHT22;6514;48.606;9.222;2023-06-22T04:45:00;19.30;99.90
12893;DHT22;6514;48.606;9.222;2023-06-22T04:47:27;19.40;99.90
12893;DHT22;6514;48.606;9.222;2023-06-22T04:49:54;19.40;99.90
12893;DHT22;6514;48.606;9.222;2023-06-22T04:52:21;19.50;99.90
12893;DHT22;6514;48.606;9.222;2023-06-22T04:54:48;19.50;99.90
12893;DHT22;6514;48.606;9.222;2023-06-22T04:57:17;19.50;99.90
12893;DHT22;6514;48.606;9.222;2023-06-22T04:59:44;19.50;99.90
12893;DHT22;6514;48.606;9.222;2023-06-22T05:02:11;19.50;99.90
12893;DHT22;6514;48.606;9.222;2023-06-22T05:04:37;19.50;99.90
12893;DHT22;6514;48.606;9.222;2023-06-22T05:07:04;19.60;99.90
12893;DHT22;6514;48.606;9.222;2023-06-22T05:09:32;19.70;99.90
12893;DHT22;6514;48.606;9.222;2023-06-22T05:11:59;19.70;99.90
12893;DHT22;6514;48.606;9.222;2023-06-22T05:14:29;19.70;99.90
12893;DHT22;6514;48.606;9.222;2023-06-22T05:16:56;19.80;99.90
12893;DHT22;6514;48.606;9.222;2023-06-22T05:19:24;19.80;99.90
12893;DHT22;6514;48.606;9.222;2023-06-22T05:21:56;19.90;99.90
12893;DHT22;6514;48.606;9.222;2023-06-22T05:24:23;20.00;99.90
12893;DHT22;6514;48.606;9.222;2023-06-22T05:26:50;20.00;99.90
12893;DHT22;6514;48.606;9.222;2023-06-22T05:29:17;20.20;99.90
12893;DHT22;6514;48.606;9.222;2023-06-22T05:31:45;20.40;99.90
12893;DHT22;6514;48.606;9.222;2023-06-22T05:34:12;20.70;99.90
12893;DHT22;6514;48.606;9.222;2023-06-22T05:36:38;20.90;99.90
12893;DHT22;6514;48.606;9.222;2023-06-22T05:39:11;21.10;99.90
12893;DHT22;6514;48.606;9.222;2023-06-22T05:41:39;21.30;99.90
12893;DHT22;6514;48.606;9.222;2023-06-22T05:44:05;21.50;99.90
12893;DHT22;6514;48.606;9.222;2023-06-22T05:46:32;21.70;99.90
12893;DHT22;6514;48.606;9.222;2023-06-22T05:49:00;22.00;99.90
12893;DHT22;6514;48.606;9.222;2023-06-22T05:51:27;22.20;99.90
12893;DHT22;6514;48.606;9.222;2023-06-22T05:53:54;22.40;99.90
12893;DHT22;6514;48.606;9.222;2023-06-22T05:56:21;22.70;99.90
12893;DHT22;6514;48.606;9.222;2023-06-22T05:58:48;22.90;99.90
12893;DHT22;6514;48.606;9.222;2023-06-22T06:01:15;23.00;99.90
12893;DHT22;6514;48.606;9.222;2023-06-22T06:03:42;23.30;99.90
12893;DHT22;6514;48.606;9.222;2023-06-22T06:06:11;23.40;99.90
12893;DHT22;6514;48.606;9.222;2023-06-22T06:08:38;23.60;99.90
12893;DHT22;6514;48.606;9.222;2023-06-22T06:11:04;23.70;99.90
12893;DHT22;6514;48.606;9.222;2023-06-22T06:13:31;23.80;99.90
12893;DHT22;6514;48.606;9.222;2023-06-22T06:15:58;24.00;99.90
12893;DHT22;6514;48.606;9.222;2023-06-22T06:18:25;24.10;99.90
12893;DHT22;6514;48.606;9.222;2023-06-22T06:20:52;24.30;99.90
12893;DHT22;6514;48.606;9.222;2023-06-22T06:23:20;24.50;99.90
12893;DHT22;6514;48.606;9.222;2023-06-22T06:25:46;24.70;99.90
12893;DHT22;6514;48.606;9.222;2023-06-22T06:28:13;24.90;99.90
12893;DHT22;6514;48.606;9.222;2023-06-22T06:30:40;25.20;99.90
12893;DHT22;6514;48.606;9.222;2023-06-22T06:33:07;25.30;99.90
12893;DHT22;6514;48.606;9.222;2023-06-22T06:35:34;25.40;99.90
12893;DHT22;6514;48.606;9.222;2023-06-22T06:38:01;25.50;99.90
12893;DHT22;6514;48.606;9.222;2023-06-22T06:40:30;25.60;99.90
12893;DHT22;6514;48.606;9.222;2023-06-22T06:42:57;25.70;99.90
12893;DHT22;6514;48.606;9.222;2023-06-22T06:45:24;25.90;99.90
12893;DHT22;6514;48.606;9.222;2023-06-22T06:47:54;26.10;99.90
12893;DHT22;6514;48.606;9.222;2023-06-22T06:50:21;26.30;99.90
12893;DHT22;6514;48.606;9.222;2023-06-22T06:52:47;26.50;99.90
12893;DHT22;6514;48.606;9.222;2023-06-22T06:55:15;26.70;99.90
12893;DHT22;6514;48.606;9.222;2023-06-22T06:57:43;26.90;99.90
12893;DHT22;6514;48.606;9.222;2023-06-22T07:00:14;27.10;99.90
12893;DHT22;6514;48.606;9.222;2023-06-22T07:02:42;27.30;99.90
12893;DHT22;6514;48.606;9.222;2023-06-22T07:05:09;27.20;99.90
12893;DHT22;6514;48.606;9.222;2023-06-22T07:07:36;27.40;99.90
12893;DHT22;6514;48.606;9.222;2023-06-22T07:10:04;27.50;99.90
12893;DHT22;6514;48.606;9.222;2023-06-22T07:12:31;27.70;99.90
12893;DHT22;6514;48.606;9.222;2023-06-22T07:15:03;27.90;99.90
12893;DHT22;6514;48.606;9.222;2023-06-22T07:17:31;28.20;99.90
12893;DHT22;6514;48.606;9.222;2023-06-22T07:19:57;28.40;99.90
12893;DHT22;6514;48.606;9.222;2023-06-22T07:22:24;28.70;99.90
12893;DHT22;6514;48.606;9.222;2023-06-22T07:24:51;28.80;99.90
12893;DHT22;6514;48.606;9.222;2023-06-22T07:27:18;28.90;99.90
12893;DHT22;6514;48.606;9.222;2023-06-22T07:29:45;29.10;99.90
12893;DHT22;6514;48.606;9.222;2023-06-22T07:32:14;29.40;99.90
12893;DHT22;6514;48.606;9.222;2023-06-22T07:34:40;29.50;99.90
12893;DHT22;6514;48.606;9.222;2023-06-22T07:37:08;29.60;99.90
12893;DHT22;6514;48.606;9.222;2023-06-22T07:39:35;29.70;99.90
12893;DHT22;6514;48.606;9.222;2023-06-22T07:42:03;29.70;99.90
12893;DHT22;6514;48.606;9.222;2023-06-22T07:44:30;29.90;99.90
12893;DHT22;6514;48.606;9.222;2023-06-22T07:46:57;30.10;99.90
12893;DHT22;6514;48.606;9.222;2023-06-22T07:49:25;30.10;99.90
12893;DHT22;6514;48.606;9.222;2023-06-22T07:51:52;30.20;99.90
12893;DHT22;6514;48.606;9.222;2023-06-22T07:54:19;30.60;99.90
12893;DHT22;6514;48.606;9.222;2023-06-22T07:56:46;30.80;99.90
12893;DHT22;6514;48.606;9.222;2023-06-22T07:59:13;31.20;99.90
12893;DHT22;6514;48.606;9.222;2023-06-22T08:01:40;31.20;99.90
12893;DHT22;6514;48.606;9.222;2023-06-22T08:04:06;31.10;99.90
12893;DHT22;6514;48.606;9.222;2023-06-22T08:06:35;31.30;99.90
12893;DHT22;6514;48.606;9.222;2023-06-22T08:09:02;31.50;99.90
12893;DHT22;6514;48.606;9.222;2023-06-22T08:11:29;31.40;99.90
12893;DHT22;6514;48.606;9.222;2023-06-22T08:13:56;31.80;99.90
12893;DHT22;6514;48.606;9.222;2023-06-22T08:16:24;32.20;99.90
12893;DHT22;6514;48.606;9.222;2023-06-22T08:18:50;32.50;99.90
12893;DHT22;6514;48.606;9.222;2023-06-22T08:21:17;33.10;99.90
12893;DHT22;6514;48.606;9.222;2023-06-22T08:23:45;33.50;99.90
12893;DHT22;6514;48.606;9.222;2023-06-22T08:26:12;33.50;99.90
12893;DHT22;6514;48.606;9.222;2023-06-22T08:28:39;33.60;99.90
12893;DHT22;6514;48.606;9.222;2023-06-22T08:31:05;33.80;99.90
12893;DHT22;6514;48.606;9.222;2023-06-22T08:33:32;34.00;99.90
12893;DHT22;6514;48.606;9.222;2023-06-22T08:35:59;34.00;99.90
12893;DHT22;6514;48.606;9.222;2023-06-22T08:38:26;33.70;99.90
12893;DHT22;6514;48.606;9.222;2023-06-22T08:40:54;33.60;99.90
12893;DHT22;6514;48.606;9.222;2023-06-22T08:43:21;33.50;99.90
12893;DHT22;6514;48.606;9.222;2023-06-22T08:45:47;33.90;99.90
12893;DHT22;6514;48.606;9.222;2023-06-22T08:48:14;34.60;99.90
12893;DHT22;6514;48.606;9.222;2023-06-22T08:50:41;35.20;99.90
12893;DHT22;6514;48.606;9.222;2023-06-22T08:53:08;35.30;99.90
12893;DHT22;6514;48.606;9.222;2023-06-22T08:55:36;35.20;99.90
12893;DHT22;6514;48.606;9.222;2023-06-22T08:58:04;35.40;99.90
12893;DHT22;6514;48.606;9.222;2023-06-22T09:00:31;35.80;99.90
12893;DHT22;6514;48.606;9.222;2023-06-22T09:03:00;36.20;99.90
12893;DHT22;6514;48.606;9.222;2023-06-22T09:05:27;35.90;99.90
12893;DHT22;6514;48.606;9.222;2023-06-22T09:07:55;36.00;99.90
12893;DHT22;6514;48.606;9.222;2023-06-22T09:10:22;35.60;99.90
12893;DHT22;6514;48.606;9.222;2023-06-22T09:12:49;34.90;99.90
12893;DHT22;6514;48.606;9.222;2023-06-22T09:15:17;34.50;99.90
12893;DHT22;6514;48.606;9.222;2023-06-22T09:17:44;34.60;99.90
12893;DHT22;6514;48.606;9.222;2023-06-22T09:20:12;34.70;99.90
12893;DHT22;6514;48.606;9.222;2023-06-22T09:22:39;34.50;99.90
12893;DHT22;6514;48.606;9.222;2023-06-22T09:25:06;34.40;99.90
12893;DHT22;6514;48.606;9.222;2023-06-22T09:27:33;34.20;99.90
12893;DHT22;6514;48.606;9.222;2023-06-22T09:30:00;34.40;99.90
12893;DHT22;6514;48.606;9.222;2023-06-22T09:32:30;34.30;99.90
12893;DHT22;6514;48.606;9.222;2023-06-22T09:34:57;34.50;99.90
12893;DHT22;6514;48.606;9.222;2023-06-22T09:37:24;34.70;99.90
12893;DHT22;6514;48.606;9.222;2023-06-22T09:39:51;34.70;99.90
12893;DHT22;6514;48.606;9.222;2023-06-22T09:42:18;34.80;99.90
12893;DHT22;6514;48.606;9.222;2023-06-22T09:44:44;35.00;99.90
12893;DHT22;6514;48.606;9.222;2023-06-22T09:47:11;35.30;99.90
12893;DHT22;6514;48.606;9.222;2023-06-22T09:49:39;35.70;99.90
12893;DHT22;6514;48.606;9.222;2023-06-22T09:52:07;35.90;99.90
12893;DHT22;6514;48.606;9.222;2023-06-22T09:54:34;36.30;99.90
12893;DHT22;6514;48.606;9.222;2023-06-22T09:57:00;36.80;99.90
12893;DHT22;6514;48.606;9.222;2023-06-22T09:59:27;36.40;99.90
12893;DHT22;6514;48.606;9.222;2023-06-22T10:01:54;36.40;99.90
12893;DHT22;6514;48.606;9.222;2023-06-22T10:04:21;36.40;99.90
12893;DHT22;6514;48.606;9.222;2023-06-22T10:06:49;36.40;99.90
12893;DHT22;6514;48.606;9.222;2023-06-22T10:09:16;36.30;99.90
12893;DHT22;6514;48.606;9.222;2023-06-22T10:11:43;35.60;99.90
12893;DHT22;6514;48.606;9.222;2023-06-22T10:14:09;35.20;99.90
12893;DHT22;6514;48.606;9.222;2023-06-22T10:16:36;35.10;99.90
12893;DHT22;6514;48.606;9.222;2023-06-22T10:19:03;34.90;99.90
12893;DHT22;6514;48.606;9.222;2023-06-22T10:21:30;34.90;99.90
12893;DHT22;6514;48.606;9.222;2023-06-22T10:23:58;35.40;99.90
12893;DHT22;6514;48.606;9.222;2023-06-22T10:26:31;35.90;99.90
12893;DHT22;6514;48.606;9.222;2023-06-22T10:28:58;36.50;99.90
12893;DHT22;6514;48.606;9.222;2023-06-22T10:31:25;36.90;99.90
12893;DHT22;6514;48.606;9.222;2023-06-22T10:33:53;37.00;99.90
12893;DHT22;6514;48.606;9.222;2023-06-22T10:36:21;37.10;99.90
12893;DHT22;6514;48.606;9.222;2023-06-22T10:38:48;36.90;99.90
12893;DHT22;6514;48.606;9.222;2023-06-22T10:41:16;36.80;99.90
12893;DHT22;6514;48.606;9.222;2023-06-22T10:43:43;36.60;99.90
12893;DHT22;6514;48.606;9.222;2023-06-22T10:46:10;36.20;99.90
12893;DHT22;6514;48.606;9.222;2023-06-22T10:48:37;36.00;99.90
12893;DHT22;6514;48.606;9.222;2023-06-22T10:51:04;36.00;99.90
12893;DHT22;6514;48.606;9.222;2023-06-22T10:53:31;35.90;99.90
12893;DHT22;6514;48.606;9.222;2023-06-22T10:55:58;35.90;99.90
12893;DHT22;6514;48.606;9.222;2023-06-22T10:58:26;36.00;99.90
12893;DHT22;6514;48.606;9.222;2023-06-22T11:00:53;35.90;99.90
12893;DHT22;6514;48.606;9.222;2023-06-22T11:03:20;35.70;99.90
12893;DHT22;6514;48.606;9.222;2023-06-22T11:05:47;35.60;99.90
12893;DHT22;6514;48.606;9.222;2023-06-22T11:08:13;35.70;99.90
12893;DHT22;6514;48.606;9.222;2023-06-22T11:10:40;35.70;99.90
12893;DHT22;6514;48.606;9.222;2023-06-22T11:13:07;35.60;99.90
12893;DHT22;6514;48.606;9.222;2023-06-22T11:15:36;35.70;99.90
12893;DHT22;6514;48.606;9.222;2023-06-22T11:18:03;35.60;99.90
12893;DHT22;6514;48.606;9.222;2023-06-22T11:20:33;35.50;99.90
12893;DHT22;6514;48.606;9.222;2023-06-22T11:23:04;35.50;99.90
12893;DHT22;6514;48.606;9.222;2023-06-22T11:25:30;35.40;99.90
12893;DHT22;6514;48.606;9.222;2023-06-22T11:27:57;35.50;99.90
12893;DHT22;6514;48.606;9.222;2023-06-22T11:30:24;35.40;99.90
12893;DHT22;6514;48.606;9.222;2023-06-22T11:32:52;35.40;99.90
12893;DHT22;6514;48.606;9.222;2023-06-22T11:35:19;35.50;99.90
12893;DHT22;6514;48.606;9.222;2023-06-22T11:37:46;35.40;99.90
12893;DHT22;6514;48.606;9.222;2023-06-22T11:40:13;35.30;99.90
12893;DHT22;6514;48.606;9.222;2023-06-22T11:42:39;35.00;99.90
12893;DHT22;6514;48.606;9.222;2023-06-22T11:45:07;34.40;99.90
12893;DHT22;6514;48.606;9.222;2023-06-22T11:47:34;34.10;99.90
12893;DHT22;6514;48.606;9.222;2023-06-22T11:50:03;33.80;99.90
12893;DHT22;6514;48.606;9.222;2023-06-22T11:52:30;33.70;99.90
12893;DHT22;6514;48.606;9.222;2023-06-22T11:54:57;33.50;99.90
12893;DHT22;6514;48.606;9.222;2023-06-22T11:57:25;33.60;99.90
12893;DHT22;6514;48.606;9.222;2023-06-22T11:59:51;33.80;99.90
12893;DHT22;6514;48.606;9.222;2023-06-22T12:02:18;34.10;99.90
12893;DHT22;6514;48.606;9.222;2023-06-22T12:04:45;34.30;99.90
12893;DHT22;6514;48.606;9.222;2023-06-22T12:07:13;34.70;99.90
12893;DHT22;6514;48.606;9.222;2023-06-22T12:09:40;34.80;99.90
12893;DHT22;6514;48.606;9.222;2023-06-22T12:12:07;34.80;99.90
12893;DHT22;6514;48.606;9.222;2023-06-22T12:14:34;34.60;99.90
12893;DHT22;6514;48.606;9.222;2023-06-22T12:17:01;34.50;99.90
12893;DHT22;6514;48.606;9.222;2023-06-22T12:19:28;34.50;99.90
12893;DHT22;6514;48.606;9.222;2023-06-22T12:21:55;34.40;99.90
12893;DHT22;6514;48.606;9.222;2023-06-22T12:24:23;34.30;99.90
12893;DHT22;6514;48.606;9.222;2023-06-22T12:26:49;34.20;99.90
12893;DHT22;6514;48.606;9.222;2023-06-22T12:29:16;33.90;99.90
12893;DHT22;6514;48.606;9.222;2023-06-22T12:31:43;33.60;99.90
12893;DHT22;6514;48.606;9.222;2023-06-22T12:34:10;33.30;99.90
12893;DHT22;6514;48.606;9.222;2023-06-22T12:36:37;33.00;99.90
12893;DHT22;6514;48.606;9.222;2023-06-22T12:39:03;32.70;99.90
12893;DHT22;6514;48.606;9.222;2023-06-22T12:41:32;32.40;99.90
12893;DHT22;6514;48.606;9.222;2023-06-22T12:43:59;32.10;99.90
12893;DHT22;6514;48.606;9.222;2023-06-22T12:46:26;32.00;99.90
12893;DHT22;6514;48.606;9.222;2023-06-22T12:48:53;31.90;99.90
12893;DHT22;6514;48.606;9.222;2023-06-22T12:51:23;31.90;99.90
12893;DHT22;6514;48.606;9.222;2023-06-22T12:53:50;32.00;99.90
12893;DHT22;6514;48.606;9.222;2023-06-22T12:56:16;31.80;99.90
12893;DHT22;6514;48.606;9.222;2023-06-22T12:58:45;31.80;99.90
12893;DHT22;6514;48.606;9.222;2023-06-22T13:01:11;31.80;99.90
12893;DHT22;6514;48.606;9.222;2023-06-22T13:03:38;31.80;99.90
12893;DHT22;6514;48.606;9.222;2023-06-22T13:06:05;31.90;99.90
12893;DHT22;6514;48.606;9.222;2023-06-22T13:08:32;31.90;99.90
12893;DHT22;6514;48.606;9.222;2023-06-22T13:10:59;31.80;99.90
12893;DHT22;6514;48.606;9.222;2023-06-22T13:13:26;31.80;99.90
12893;DHT22;6514;48.606;9.222;2023-06-22T13:15:54;32.00;99.90
12893;DHT22;6514;48.606;9.222;2023-06-22T13:18:21;32.10;99.90
12893;DHT22;6514;48.606;9.222;2023-06-22T13:20:48;32.50;99.90
12893;DHT22;6514;48.606;9.222;2023-06-22T13:23:15;33.00;99.90
12893;DHT22;6514;48.606;9.222;2023-06-22T13:25:41;33.40;99.90
12893;DHT22;6514;48.606;9.222;2023-06-22T13:28:08;33.70;99.90
12893;DHT22;6514;48.606;9.222;2023-06-22T13:30:36;33.80;99.90
12893;DHT22;6514;48.606;9.222;2023-06-22T13:33:04;33.70;99.90
12893;DHT22;6514;48.606;9.222;2023-06-22T13:35:31;33.60;99.90
12893;DHT22;6514;48.606;9.222;2023-06-22T13:37:58;33.60;99.90
12893;DHT22;6514;48.606;9.222;2023-06-22T13:40:25;33.80;99.90
12893;DHT22;6514;48.606;9.222;2023-06-22T13:42:51;34.00;99.90
12893;DHT22;6514;48.606;9.222;2023-06-22T13:45:18;34.20;99.90
12893;DHT22;6514;48.606;9.222;2023-06-22T13:47:46;34.30;99.90
12893;DHT22;6514;48.606;9.222;2023-06-22T13:50:15;34.20;99.90
12893;DHT22;6514;48.606;9.222;2023-06-22T13:52:41;34.20;99.90
12893;DHT22;6514;48.606;9.222;2023-06-22T13:55:09;34.30;99.90
12893;DHT22;6514;48.606;9.222;2023-06-22T13:57:36;34.40;99.90
12893;DHT22;6514;48.606;9.222;2023-06-22T14:00:04;34.40;99.90
12893;DHT22;6514;48.606;9.222;2023-06-22T14:02:31;34.40;99.90
12893;DHT22;6514;48.606;9.222;2023-06-22T14:04:58;34.30;99.90
12893;DHT22;6514;48.606;9.222;2023-06-22T14:07:26;34.00;99.90
12893;DHT22;6514;48.606;9.222;2023-06-22T14:09:53;33.80;99.90
12893;DHT22;6514;48.606;9.222;2023-06-22T14:12:20;33.50;99.90
12893;DHT22;6514;48.606;9.222;2023-06-22T14:14:47;33.50;99.90
12893;DHT22;6514;48.606;9.222;2023-06-22T14:17:14;33.40;99.90
12893;DHT22;6514;48.606;9.222;2023-06-22T14:19:40;33.30;99.90
12893;DHT22;6514;48.606;9.222;2023-06-22T14:22:07;33.20;99.90
12893;DHT22;6514;48.606;9.222;2023-06-22T14:24:35;33.20;99.90
12893;DHT22;6514;48.606;9.222;2023-06-22T14:27:02;33.30;99.90
12893;DHT22;6514;48.606;9.222;2023-06-22T14:29:33;33.60;99.90
12893;DHT22;6514;48.606;9.222;2023-06-22T14:31:59;33.90;99.90
12893;DHT22;6514;48.606;9.222;2023-06-22T14:34:26;34.40;99.90
12893;DHT22;6514;48.606;9.222;2023-06-22T14:36:53;34.90;99.90
12893;DHT22;6514;48.606;9.222;2023-06-22T14:39:20;34.90;99.90
12893;DHT22;6514;48.606;9.222;2023-06-22T14:41:48;34.80;99.90
12893;DHT22;6514;48.606;9.222;2023-06-22T14:44:15;34.60;99.90
12893;DHT22;6514;48.606;9.222;2023-06-22T14:46:42;34.70;99.90
12893;DHT22;6514;48.606;9.222;2023-06-22T14:49:08;34.50;99.90
12893;DHT22;6514;48.606;9.222;2023-06-22T14:51:35;34.60;99.90
12893;DHT22;6514;48.606;9.222;2023-06-22T14:54:02;34.40;99.90
12893;DHT22;6514;48.606;9.222;2023-06-22T14:56:29;34.20;99.90
12893;DHT22;6514;48.606;9.222;2023-06-22T14:58:57;34.20;99.90
12893;DHT22;6514;48.606;9.222;2023-06-22T15:01:24;34.10;99.90
12893;DHT22;6514;48.606;9.222;2023-06-22T15:03:51;33.90;99.90
12893;DHT22;6514;48.606;9.222;2023-06-22T15:06:18;33.90;99.90
12893;DHT22;6514;48.606;9.222;2023-06-22T15:08:44;34.00;99.90
12893;DHT22;6514;48.606;9.222;2023-06-22T15:11:11;33.80;99.90
12893;DHT22;6514;48.606;9.222;2023-06-22T15:13:39;33.90;99.90
12893;DHT22;6514;48.606;9.222;2023-06-22T15:16:07;33.80;99.90
12893;DHT22;6514;48.606;9.222;2023-06-22T15:18:35;34.00;99.90
12893;DHT22;6514;48.606;9.222;2023-06-22T15:21:03;34.10;99.10
12893;DHT22;6514;48.606;9.222;2023-06-22T15:23:31;33.90;98.50
12893;DHT22;6514;48.606;9.222;2023-06-22T15:25:58;33.70;97.90
12893;DHT22;6514;48.606;9.222;2023-06-22T15:28:25;33.30;98.80
12893;DHT22;6514;48.606;9.222;2023-06-22T15:30:52;32.80;99.50
12893;DHT22;6514;48.606;9.222;2023-06-22T15:33:20;32.40;98.30
12893;DHT22;6514;48.606;9.222;2023-06-22T15:35:47;32.00;99.00
12893;DHT22;6514;48.606;9.222;2023-06-22T15:38:14;31.60;99.20
12893;DHT22;6514;48.606;9.222;2023-06-22T15:40:41;31.50;99.80
12893;DHT22;6514;48.606;9.222;2023-06-22T15:43:10;31.30;99.90
12893;DHT22;6514;48.606;9.222;2023-06-22T15:45:37;31.10;99.90